Terminal Aerodrome Forecast
Issued by NWS Charleston, WV

Current Version | Previous Version | Graphics & Text | Print | Product List | Glossary On
Versions: 1 2 3 4 5 6 7 8 9 10 11 12 13 14 15 16 17 18 19 20 21 22 23 24
000
FTUS41 KRLX 171100
TAFPKB
TAF
KPKB 171135Z 1712/1812 20008KT P6SM BKN025
     FM171400 23009G16KT P6SM BKN035
     FM171600 21012G24KT P6SM BKN250
     FM180200 24007G17KT P6SM BKN035
     FM180700 27009KT P6SM OVC050=

USA.gov is the U.S. government's official web portal to all federal, state and local government web resources and services.